AirNav   Everest Fuels
 
 1160 users online  

95FL Pinellas County Mosquito Control Heliport
Pinellas Park, Florida, USA

GOING TO PINELLAS PARK?


FAA INFORMATION EFFECTIVE 13 AUGUST 2020

Location

FAA Identifier: 95FL
Lat/Long: 27-52-33.2100N 082-41-21.6800W
27-52.553500N 082-41.361333W
27.8758917,-82.6893556
(estimated)
Elevation: 10 ft. / 3 m (estimated)
Variation: 02W (1985)
From city: 2 miles SSW of PINELLAS PARK, FL
Time zone: UTC -4 (UTC -5 during Standard Time)
Zip code: 33762

Heliport Operations

Heliport use: Private use. Permission required prior to landing
Activation date: 04/1983
Control tower: no
ARTCC: MIAMI CENTER
FSS: SAINT PETERSBURG FLIGHT SERVICE STATION
Attendance: MON-FRI 0630-1730
Wind indicator: yes
Segmented circle: no

Heliport Communications

WX ASOS at PIE (2.0 nm N): PHONE 727-531-3456
WX AWOS-3P at CLW (7 nm NW): 119.225 (727-449-2184)
WX ASOS at SPG (7 nm SE): 118.875 (727-821-4334)
WX ASOS at TPA (10 nm NE): PHONE 813-873-7228
WX AWOS-3 at TPF (13 nm E): 118.925 (813-251-6824)

Nearby radio navigation aids

VOR radial/distance  VOR name  Freq  Var
PIEr193/1.9ST PETERSBURG VORTAC116.4005W
SRQr352/28.9SARASOTA VOR/DME117.0005W
LALr259/36.4LAKELAND VORTAC116.0001E

 
NDB name  Hdg/Dist  Freq  Var  ID
CAPOK179/7.236005WPI .--. ..

Heliport Services

Runway Information

Helipad H1

Dimensions: 250 x 250 ft. / 76 x 76 m
Surface: asphalt
Latitude: 27-52.553500N
Longitude: 082-41.361333W
Elevation: 10.0 ft.
Traffic pattern: leftleft

Heliport Ownership and Management from official FAA records

Ownership: Publicly-owned
Owner: PINELLAS COUNTY MOSQUITO CTL
4100 118TH AVENUE NORTH
CLEARWATER, FL 33762
Phone (727) 464-7503
Manager: BRIAN LAWTON
4100 118TH AVENUE NORTH
CLEARWATER, FL 33762
Phone 727-464-7503

Heliport Operational Statistics

Aircraft based on the field: 2
Helicopters: 2
    

Additional Remarks

FOR CD CTC TAMPA APCH AT 813-878-2528

Instrument Procedures

There are no published instrument procedures at 95FL.

Some nearby airports with instrument procedures:

KPIE - St Pete-Clearwater International Airport (2 nm N)
KCLW - Clearwater Air Park (7 nm NW)
KSPG - Albert Whitted Airport (7 nm SE)
KMCF - MacDill Air Force Base (9 nm E)
KTPA - Tampa International Airport (10 nm NE)
KTPF - Peter O Knight Airport (13 nm E)
 
Loc | Ops | Rwys | IFR | FBO | Links
Com | Nav | Svcs | Stats | Notes


 
Area around 95FL (Pinellas County Mosquito Control Heliport)
 
Road maps at: MapQuest Bing Google
 
Aerial photo
No photo
 
Sectional chart

 
Airport distance calculator
Flying to Pinellas County Mosquito Control Heliport? Find the distance to fly.

From to 95FL

Sunrise and sunset
Times for 14-Aug-2020
 Local
(UTC-4)
 Zulu
(UTC)
Morning civil twilight06:3710:37
Sunrise07:0211:02
Sunset20:0800:08
Evening civil twilight20:3300:33

Current date and time
Zulu (UTC)  14-Aug-2020 22:54:27
Local (UTC-4)  14-Aug-2020 18:54:27
 
METAR
KPIE 
2nm N 
142153Z 31008KT 10SM CLR 33/26 A2993 RMK AO2 SLP135 T03280256
KCLW 
7nm NW 
142235Z AUTO 27004KT 10SM CLR 31/23 A2994 RMK AO2 PWINO
KSPG 
7nm SE 
142153Z 30006KT 10SM FEW037 31/24 A2991 RMK AO2 SLP128 T03110244
KMCF 
9nm E 
142156Z AUTO 30005KT 10SM FEW230 32/23 A2993 RMK AO2 SLP138 T03160234 FZRANO $
KTPA 
10nm NE 
142153Z 27007KT 10SM FEW035 SCT190 BKN300 32/23 A2993 RMK AO2 SLP136 TCU DSNT N-S T03220228
KTPF 
13nm E 
142235Z AUTO 30003KT 10SM OVC100 33/25 A2994 RMK AO2
KVDF 
20nm NE 
142235Z AUTO 00000KT 10SM CLR 31/25 A2994 RMK AO2
TAF
KPIE 
2nm N 
141720Z 1418/1518 06006KT P6SM VCTS SCT040CB SCT250 TEMPO 1418/1422 VRB15G25KT 3SM TSRA BKN025CB FM142200 29007KT P6SM SCT040 SCT100 BKN250 FM150100 VRB03KT P6SM SCT040 SCT100 BKN250 FM150600 00000KT P6SM FEW035 SCT250 FM151400 24007KT P6SM SCT035 SCT250
KMCF 
9nm E 
141807Z 1418/1600 VRB06KT 9999 SCT010 QNH3001INS TEMPO 1418/1423 11015KT 9000 -TSRA BKN030CB BECMG 1500/1501 VRB06KT 9999 FEW030 SCT040 BKN050 QNH2996INS BECMG 1518/1519 11006KT 9999 VCTS SCT020 BKN040CB QNH2999INS TX33/1419Z TN25/1512Z
KTPA 
10nm NE 
142100Z 1421/1524 24007KT P6SM VCTS SCT040CB SCT250 TEMPO 1421/1422 VRB15G25KT 3SM TSRA BKN025CB FM142200 26008KT P6SM SCT040 SCT100 BKN250 FM150100 VRB03KT P6SM SCT040 SCT100 BKN250 FM150600 00000KT P6SM FEW035 SCT250 FM151400 23005KT P6SM SCT035 SCT250 FM151800 24008KT P6SM VCTS SCT040CB SCT250
NOTAMs
Click for the latest NOTAMs
NOTAMs are issued by the DoD/FAA and will open in a separate window not controlled by AirNav.

 

 
 

Would you like to see your business listed on this page?

 If your business provides an interesting product or service to pilots, flight crews, aircraft, or users of the Pinellas County Mosquito Control Heliport, you should consider listing it here.  To start the listing process, click on the button below
 
Add a business
 

Other Pages about Pinellas County Mosquito Control Heliport

Update a link
 
Copyright © AirNav, LLC. All rights reserved. Privacy Policy  Contact